Terminal Aerodrome Forecast
Issued by NWS Duluth, MN

Home | Current Version | Previous Version | Text Only | Print | Product List | Glossary On
Versions: 1 2 3 4 5 6 7 8 9 10 11 12 13 14 15 16 17 18 19 20 21 22 23 24 25 26
000
FTUS43 KDLH 210900 AAA
TAFINL
TAF AMD
KINL 210925Z 2109/2206 15006KT 3SM -SN BR OVC006
      TEMPO 2109/2111 3/4SM -SN BR OVC004
     FM211100 15010KT 4SM -FZDZSN BR OVC005
     FM211700 16011G17KT 5SM BR OVC008
     FM220200 13007KT 4SM BR OVC007=

USA.gov is the U.S. government's official web portal to all federal, state and local government web resources and services.